sensor_id;sensor_type;location;lat;lon;timestamp;temperature;humidity
78479;SHT31;67769;51.972;5.668;2023-07-13T00:00:49;21.8;53.2
78479;SHT31;67769;51.972;5.668;2023-07-13T00:03:20;21.8;53.4
78479;SHT31;67769;51.972;5.668;2023-07-13T00:06:00;21.7;53.1
78479;SHT31;67769;51.972;5.668;2023-07-13T00:08:31;21.7;53.6
78479;SHT31;67769;51.972;5.668;2023-07-13T00:11:03;21.6;53.6
78479;SHT31;67769;51.972;5.668;2023-07-13T00:13:34;21.6;53.2
78479;SHT31;67769;51.972;5.668;2023-07-13T00:16:08;21.6;53.2
78479;SHT31;67769;51.972;5.668;2023-07-13T00:18:38;21.5;53.0
78479;SHT31;67769;51.972;5.668;2023-07-13T00:21:08;21.5;53.2
78479;SHT31;67769;51.972;5.668;2023-07-13T00:23:40;21.4;53.3
78479;SHT31;67769;51.972;5.668;2023-07-13T00:26:12;21.4;53.8
78479;SHT31;67769;51.972;5.668;2023-07-13T00:28:41;21.3;53.8
78479;SHT31;67769;51.972;5.668;2023-07-13T00:31:13;21.3;53.8
78479;SHT31;67769;51.972;5.668;2023-07-13T00:33:44;21.3;53.8
78479;SHT31;67769;51.972;5.668;2023-07-13T00:36:13;21.2;54.2
78479;SHT31;67769;51.972;5.668;2023-07-13T00:38:44;21.2;54.5
78479;SHT31;67769;51.972;5.668;2023-07-13T00:41:13;21.2;54.0
78479;SHT31;67769;51.972;5.668;2023-07-13T00:43:43;21.2;55.0
78479;SHT31;67769;51.972;5.668;2023-07-13T00:46:19;21.2;53.9
78479;SHT31;67769;51.972;5.668;2023-07-13T00:48:51;21.1;54.4
78479;SHT31;67769;51.972;5.668;2023-07-13T00:51:25;21.1;53.7
78479;SHT31;67769;51.972;5.668;2023-07-13T00:54:05;21.1;54.7
78479;SHT31;67769;51.972;5.668;2023-07-13T00:56:36;21.1;54.2
78479;SHT31;67769;51.972;5.668;2023-07-13T00:59:08;21.0;54.9
78479;SHT31;67769;51.972;5.668;2023-07-13T01:01:39;21.0;55.0
78479;SHT31;67769;51.972;5.668;2023-07-13T01:04:10;21.0;54.7
78479;SHT31;67769;51.972;5.668;2023-07-13T01:06:43;21.0;55.5
78479;SHT31;67769;51.972;5.668;2023-07-13T01:09:14;20.9;55.3
78479;SHT31;67769;51.972;5.668;2023-07-13T01:11:45;20.9;55.4
78479;SHT31;67769;51.972;5.668;2023-07-13T01:14:15;20.9;55.2
78479;SHT31;67769;51.972;5.668;2023-07-13T01:16:47;20.9;55.1
78479;SHT31;67769;51.972;5.668;2023-07-13T01:19:29;20.9;55.5
78479;SHT31;67769;51.972;5.668;2023-07-13T01:22:03;20.9;55.0
78479;SHT31;67769;51.972;5.668;2023-07-13T01:24:37;20.8;55.5
78479;SHT31;67769;51.972;5.668;2023-07-13T01:27:08;20.8;55.9
78479;SHT31;67769;51.972;5.668;2023-07-13T01:29:42;20.8;55.7
78479;SHT31;67769;51.972;5.668;2023-07-13T01:32:16;20.8;55.5
78479;SHT31;67769;51.972;5.668;2023-07-13T01:34:51;20.8;55.0
78479;SHT31;67769;51.972;5.668;2023-07-13T01:37:22;20.7;55.3
78479;SHT31;67769;51.972;5.668;2023-07-13T01:39:51;20.7;55.5
78479;SHT31;67769;51.972;5.668;2023-07-13T01:42:23;20.6;55.2
78479;SHT31;67769;51.972;5.668;2023-07-13T01:44:52;20.6;55.3
78479;SHT31;67769;51.972;5.668;2023-07-13T01:47:22;20.5;55.2
78479;SHT31;67769;51.972;5.668;2023-07-13T01:49:53;20.5;55.5
78479;SHT31;67769;51.972;5.668;2023-07-13T01:52:23;20.4;55.8
78479;SHT31;67769;51.972;5.668;2023-07-13T01:54:52;20.3;56.2
78479;SHT31;67769;51.972;5.668;2023-07-13T01:57:22;20.3;56.9
78479;SHT31;67769;51.972;5.668;2023-07-13T01:59:51;20.2;57.3
78479;SHT31;67769;51.972;5.668;2023-07-13T02:02:21;20.2;57.2
78479;SHT31;67769;51.972;5.668;2023-07-13T02:04:50;20.2;57.6
78479;SHT31;67769;51.972;5.668;2023-07-13T02:07:20;20.2;57.3
78479;SHT31;67769;51.972;5.668;2023-07-13T02:09:49;20.2;56.8
78479;SHT31;67769;51.972;5.668;2023-07-13T02:12:19;20.2;57.2
78479;SHT31;67769;51.972;5.668;2023-07-13T02:14:50;20.2;57.7
78479;SHT31;67769;51.972;5.668;2023-07-13T02:17:20;20.2;57.4
78479;SHT31;67769;51.972;5.668;2023-07-13T02:19:49;20.2;57.0
78479;SHT31;67769;51.972;5.668;2023-07-13T02:22:19;20.2;57.2
78479;SHT31;67769;51.972;5.668;2023-07-13T02:24:49;20.2;57.2
78479;SHT31;67769;51.972;5.668;2023-07-13T02:27:19;20.2;57.2
78479;SHT31;67769;51.972;5.668;2023-07-13T02:29:48;20.2;57.4
78479;SHT31;67769;51.972;5.668;2023-07-13T02:32:19;20.2;57.0
78479;SHT31;67769;51.972;5.668;2023-07-13T02:34:51;20.1;57.6
78479;SHT31;67769;51.972;5.668;2023-07-13T02:37:22;20.1;57.8
78479;SHT31;67769;51.972;5.668;2023-07-13T02:39:51;20.1;58.0
78479;SHT31;67769;51.972;5.668;2023-07-13T02:42:21;20.1;58.4
78479;SHT31;67769;51.972;5.668;2023-07-13T02:44:51;20.1;58.1
78479;SHT31;67769;51.972;5.668;2023-07-13T02:47:22;20.1;57.7
78479;SHT31;67769;51.972;5.668;2023-07-13T02:49:52;20.1;58.4
78479;SHT31;67769;51.972;5.668;2023-07-13T02:52:24;20.1;58.1
78479;SHT31;67769;51.972;5.668;2023-07-13T02:54:53;20.0;58.0
78479;SHT31;67769;51.972;5.668;2023-07-13T02:57:23;20.0;58.1
78479;SHT31;67769;51.972;5.668;2023-07-13T02:59:52;20.0;58.8
78479;SHT31;67769;51.972;5.668;2023-07-13T03:12:02;20.5;57.5
78479;SHT31;67769;51.972;5.668;2023-07-13T03:14:31;20.4;57.5
78479;SHT31;67769;51.972;5.668;2023-07-13T03:17:01;20.4;57.2
78479;SHT31;67769;51.972;5.668;2023-07-13T03:19:31;20.4;57.0
78479;SHT31;67769;51.972;5.668;2023-07-13T03:22:01;20.3;57.4
78479;SHT31;67769;51.972;5.668;2023-07-13T03:24:32;20.3;57.5
78479;SHT31;67769;51.972;5.668;2023-07-13T03:27:04;20.3;57.5
78479;SHT31;67769;51.972;5.668;2023-07-13T03:29:34;20.2;57.3
78479;SHT31;67769;51.972;5.668;2023-07-13T03:32:04;20.1;57.3
78479;SHT31;67769;51.972;5.668;2023-07-13T03:34:33;20.0;57.8
78479;SHT31;67769;51.972;5.668;2023-07-13T03:37:03;20.0;58.0
78479;SHT31;67769;51.972;5.668;2023-07-13T03:39:33;19.9;58.5
78479;SHT31;67769;51.972;5.668;2023-07-13T03:42:03;19.8;58.8
78479;SHT31;67769;51.972;5.668;2023-07-13T03:44:32;19.7;59.5
78479;SHT31;67769;51.972;5.668;2023-07-13T03:47:02;19.7;59.7
78479;SHT31;67769;51.972;5.668;2023-07-13T03:49:33;19.6;60.0
78479;SHT31;67769;51.972;5.668;2023-07-13T03:52:03;19.6;59.7
78479;SHT31;67769;51.972;5.668;2023-07-13T03:54:33;19.5;59.9
78479;SHT31;67769;51.972;5.668;2023-07-13T03:57:02;19.5;59.9
78479;SHT31;67769;51.972;5.668;2023-07-13T03:59:32;19.5;60.1
78479;SHT31;67769;51.972;5.668;2023-07-13T04:02:02;19.4;60.2
78479;SHT31;67769;51.972;5.668;2023-07-13T04:04:35;19.4;60.7
78479;SHT31;67769;51.972;5.668;2023-07-13T04:07:08;19.3;61.0
78479;SHT31;67769;51.972;5.668;2023-07-13T04:09:37;19.3;61.0
78479;SHT31;67769;51.972;5.668;2023-07-13T04:12:10;19.3;61.1
78479;SHT31;67769;51.972;5.668;2023-07-13T04:14:39;19.3;61.3
78479;SHT31;67769;51.972;5.668;2023-07-13T04:17:09;19.3;61.2
78479;SHT31;67769;51.972;5.668;2023-07-13T04:19:40;19.3;61.5
78479;SHT31;67769;51.972;5.668;2023-07-13T04:22:10;19.3;61.4
78479;SHT31;67769;51.972;5.668;2023-07-13T04:24:40;19.4;61.3
78479;SHT31;67769;51.972;5.668;2023-07-13T04:27:09;19.4;61.5
78479;SHT31;67769;51.972;5.668;2023-07-13T04:29:39;19.4;61.3
78479;SHT31;67769;51.972;5.668;2023-07-13T04:32:09;19.4;61.4
78479;SHT31;67769;51.972;5.668;2023-07-13T04:34:39;19.4;61.0
78479;SHT31;67769;51.972;5.668;2023-07-13T04:37:08;19.5;61.2
78479;SHT31;67769;51.972;5.668;2023-07-13T04:39:38;19.4;61.1
78479;SHT31;67769;51.972;5.668;2023-07-13T04:42:11;19.4;61.3
78479;SHT31;67769;51.972;5.668;2023-07-13T04:44:41;19.4;61.2
78479;SHT31;67769;51.972;5.668;2023-07-13T04:47:11;19.4;61.3
78479;SHT31;67769;51.972;5.668;2023-07-13T04:49:40;19.4;61.5
78479;SHT31;67769;51.972;5.668;2023-07-13T04:52:11;19.4;61.7
78479;SHT31;67769;51.972;5.668;2023-07-13T04:54:40;19.4;61.9
78479;SHT31;67769;51.972;5.668;2023-07-13T04:57:10;19.4;61.9
78479;SHT31;67769;51.972;5.668;2023-07-13T04:59:40;19.5;62.2
78479;SHT31;67769;51.972;5.668;2023-07-13T05:02:10;19.5;61.7
78479;SHT31;67769;51.972;5.668;2023-07-13T05:04:39;19.6;61.6
78479;SHT31;67769;51.972;5.668;2023-07-13T05:07:10;19.6;61.3
78479;SHT31;67769;51.972;5.668;2023-07-13T05:09:39;19.6;61.7
78479;SHT31;67769;51.972;5.668;2023-07-13T05:12:09;19.6;61.7
78479;SHT31;67769;51.972;5.668;2023-07-13T05:14:41;19.6;61.9
78479;SHT31;67769;51.972;5.668;2023-07-13T05:17:10;19.6;62.2
78479;SHT31;67769;51.972;5.668;2023-07-13T05:19:40;19.6;62.1
78479;SHT31;67769;51.972;5.668;2023-07-13T05:22:10;19.6;62.3
78479;SHT31;67769;51.972;5.668;2023-07-13T05:24:40;19.6;62.3
78479;SHT31;67769;51.972;5.668;2023-07-13T05:27:09;19.6;62.6
78479;SHT31;67769;51.972;5.668;2023-07-13T05:29:39;19.6;62.7
78479;SHT31;67769;51.972;5.668;2023-07-13T05:32:09;19.6;62.9
78479;SHT31;67769;51.972;5.668;2023-07-13T05:34:38;19.6;63.0
78479;SHT31;67769;51.972;5.668;2023-07-13T05:37:08;19.6;63.3
78479;SHT31;67769;51.972;5.668;2023-07-13T05:39:38;19.7;63.3
78479;SHT31;67769;51.972;5.668;2023-07-13T05:42:08;19.7;63.3
78479;SHT31;67769;51.972;5.668;2023-07-13T05:44:39;19.8;63.2
78479;SHT31;67769;51.972;5.668;2023-07-13T05:47:11;19.8;63.0
78479;SHT31;67769;51.972;5.668;2023-07-13T05:49:42;19.9;63.0
78479;SHT31;67769;51.972;5.668;2023-07-13T05:52:11;19.9;63.0
78479;SHT31;67769;51.972;5.668;2023-07-13T05:54:41;20.0;63.1
78479;SHT31;67769;51.972;5.668;2023-07-13T05:57:11;20.0;63.3
78479;SHT31;67769;51.972;5.668;2023-07-13T05:59:40;20.1;63.2
78479;SHT31;67769;51.972;5.668;2023-07-13T06:02:10;20.1;63.1
78479;SHT31;67769;51.972;5.668;2023-07-13T06:04:40;20.2;63.0
78479;SHT31;67769;51.972;5.668;2023-07-13T06:07:09;20.2;63.1
78479;SHT31;67769;51.972;5.668;2023-07-13T06:09:39;20.2;63.2
78479;SHT31;67769;51.972;5.668;2023-07-13T06:12:11;20.3;63.5
78479;SHT31;67769;51.972;5.668;2023-07-13T06:14:40;20.3;63.3
78479;SHT31;67769;51.972;5.668;2023-07-13T06:17:10;20.3;63.8
78479;SHT31;67769;51.972;5.668;2023-07-13T06:19:41;20.4;64.4
78479;SHT31;67769;51.972;5.668;2023-07-13T06:22:11;20.5;63.9
78479;SHT31;67769;51.972;5.668;2023-07-13T06:24:40;20.7;63.3
78479;SHT31;67769;51.972;5.668;2023-07-13T06:27:10;20.8;62.9
78479;SHT31;67769;51.972;5.668;2023-07-13T06:29:39;20.9;62.8
78479;SHT31;67769;51.972;5.668;2023-07-13T06:32:12;21.0;62.5
78479;SHT31;67769;51.972;5.668;2023-07-13T06:34:42;21.1;62.3
78479;SHT31;67769;51.972;5.668;2023-07-13T06:37:11;21.2;61.8
78479;SHT31;67769;51.972;5.668;2023-07-13T06:39:41;21.3;61.7
78479;SHT31;67769;51.972;5.668;2023-07-13T06:42:11;21.3;61.8
78479;SHT31;67769;51.972;5.668;2023-07-13T06:44:40;21.4;61.7
78479;SHT31;67769;51.972;5.668;2023-07-13T06:47:12;21.5;61.2
78479;SHT31;67769;51.972;5.668;2023-07-13T06:49:41;21.6;60.8
78479;SHT31;67769;51.972;5.668;2023-07-13T06:52:11;21.7;60.7
78479;SHT31;67769;51.972;5.668;2023-07-13T06:54:41;21.8;60.4
78479;SHT31;67769;51.972;5.668;2023-07-13T06:57:11;21.9;60.0
78479;SHT31;67769;51.972;5.668;2023-07-13T06:59:40;22.0;60.0
78479;SHT31;67769;51.972;5.668;2023-07-13T07:02:10;22.1;59.9
78479;SHT31;67769;51.972;5.668;2023-07-13T07:04:40;22.1;59.6
78479;SHT31;67769;51.972;5.668;2023-07-13T07:07:10;22.2;59.3
78479;SHT31;67769;51.972;5.668;2023-07-13T07:09:39;22.3;59.1
78479;SHT31;67769;51.972;5.668;2023-07-13T07:12:09;22.3;58.7
78479;SHT31;67769;51.972;5.668;2023-07-13T07:14:41;22.4;58.6
78479;SHT31;67769;51.972;5.668;2023-07-13T07:17:10;22.4;58.7
78479;SHT31;67769;51.972;5.668;2023-07-13T07:19:40;22.4;58.3
78479;SHT31;67769;51.972;5.668;2023-07-13T07:22:09;22.4;58.6
78479;SHT31;67769;51.972;5.668;2023-07-13T07:24:39;22.5;58.3
78479;SHT31;67769;51.972;5.668;2023-07-13T07:27:09;22.5;58.6
78479;SHT31;67769;51.972;5.668;2023-07-13T07:29:38;22.5;58.0
78479;SHT31;67769;51.972;5.668;2023-07-13T07:32:08;22.5;58.4
78479;SHT31;67769;51.972;5.668;2023-07-13T07:34:38;22.5;57.9
78479;SHT31;67769;51.972;5.668;2023-07-13T07:37:11;22.6;58.8
78479;SHT31;67769;51.972;5.668;2023-07-13T07:39:44;22.6;57.9
78479;SHT31;67769;51.972;5.668;2023-07-13T07:42:16;22.7;57.8
78479;SHT31;67769;51.972;5.668;2023-07-13T07:44:45;22.7;57.8
78479;SHT31;67769;51.972;5.668;2023-07-13T07:47:17;22.7;57.7
78479;SHT31;67769;51.972;5.668;2023-07-13T07:49:46;22.7;58.0
78479;SHT31;67769;51.972;5.668;2023-07-13T07:52:16;22.8;58.5
78479;SHT31;67769;51.972;5.668;2023-07-13T07:54:46;22.8;58.1
78479;SHT31;67769;51.972;5.668;2023-07-13T07:57:15;22.9;58.9
78479;SHT31;67769;51.972;5.668;2023-07-13T07:59:45;23.0;57.9
78479;SHT31;67769;51.972;5.668;2023-07-13T08:02:15;23.1;57.6
78479;SHT31;67769;51.972;5.668;2023-07-13T08:04:45;23.3;56.5
78479;SHT31;67769;51.972;5.668;2023-07-13T08:07:15;23.5;56.7
78479;SHT31;67769;51.972;5.668;2023-07-13T08:09:44;23.6;56.5
78479;SHT31;67769;51.972;5.668;2023-07-13T08:12:14;23.8;55.0
78479;SHT31;67769;51.972;5.668;2023-07-13T08:14:44;24.0;54.5
78479;SHT31;67769;51.972;5.668;2023-07-13T08:17:13;24.1;54.8
78479;SHT31;67769;51.972;5.668;2023-07-13T08:19:43;24.3;54.4
78479;SHT31;67769;51.972;5.668;2023-07-13T08:22:12;24.4;53.3
78479;SHT31;67769;51.972;5.668;2023-07-13T08:24:42;24.5;52.5
78479;SHT31;67769;51.972;5.668;2023-07-13T08:27:12;24.5;52.7
78479;SHT31;67769;51.972;5.668;2023-07-13T08:29:43;24.6;53.0
78479;SHT31;67769;51.972;5.668;2023-07-13T08:32:13;24.6;52.4
78479;SHT31;67769;51.972;5.668;2023-07-13T08:34:43;24.6;51.9
78479;SHT31;67769;51.972;5.668;2023-07-13T08:37:13;24.7;52.8
78479;SHT31;67769;51.972;5.668;2023-07-13T08:39:44;24.7;52.5
78479;SHT31;67769;51.972;5.668;2023-07-13T08:42:26;24.7;51.9
78479;SHT31;67769;51.972;5.668;2023-07-13T08:45:07;24.8;51.5
78479;SHT31;67769;51.972;5.668;2023-07-13T08:47:42;24.9;51.3
78479;SHT31;67769;51.972;5.668;2023-07-13T08:50:17;25.0;49.9
78479;SHT31;67769;51.972;5.668;2023-07-13T08:52:48;25.1;48.7
78479;SHT31;67769;51.972;5.668;2023-07-13T08:55:21;25.3;48.3
78479;SHT31;67769;51.972;5.668;2023-07-13T08:58:01;25.4;48.8
78479;SHT31;67769;51.972;5.668;2023-07-13T09:00:48;25.5;49.2
78479;SHT31;67769;51.972;5.668;2023-07-13T09:03:24;25.6;48.2
78479;SHT31;67769;51.972;5.668;2023-07-13T09:05:58;25.6;47.9
78479;SHT31;67769;51.972;5.668;2023-07-13T09:08:38;25.7;48.2
78479;SHT31;67769;51.972;5.668;2023-07-13T09:11:23;25.7;47.4
78479;SHT31;67769;51.972;5.668;2023-07-13T09:14:05;25.7;47.9
78479;SHT31;67769;51.972;5.668;2023-07-13T09:16:35;25.6;48.0
78479;SHT31;67769;51.972;5.668;2023-07-13T09:19:19;25.6;48.7
78479;SHT31;67769;51.972;5.668;2023-07-13T09:21:46;25.5;48.5
78479;SHT31;67769;51.972;5.668;2023-07-13T09:24:34;25.4;48.7
78479;SHT31;67769;51.972;5.668;2023-07-13T09:27:15;25.3;49.2
78479;SHT31;67769;51.972;5.668;2023-07-13T09:29:50;25.1;50.1
78479;SHT31;67769;51.972;5.668;2023-07-13T09:32:24;25.0;51.1
78479;SHT31;67769;51.972;5.668;2023-07-13T09:34:57;24.9;51.7
78479;SHT31;67769;51.972;5.668;2023-07-13T09:37:31;24.8;52.9
78479;SHT31;67769;51.972;5.668;2023-07-13T09:40:02;24.8;52.9
78479;SHT31;67769;51.972;5.668;2023-07-13T09:42:37;24.7;53.2
78479;SHT31;67769;51.972;5.668;2023-07-13T09:45:07;24.7;53.4
78479;SHT31;67769;51.972;5.668;2023-07-13T09:47:40;24.7;53.7
78479;SHT31;67769;51.972;5.668;2023-07-13T09:50:17;24.7;54.3
78479;SHT31;67769;51.972;5.668;2023-07-13T09:52:48;24.8;53.7
78479;SHT31;67769;51.972;5.668;2023-07-13T09:55:30;24.9;54.0
78479;SHT31;67769;51.972;5.668;2023-07-13T09:58:09;25.1;53.3
78479;SHT31;67769;51.972;5.668;2023-07-13T10:00:42;25.3;51.8
78479;SHT31;67769;51.972;5.668;2023-07-13T10:03:19;25.5;51.5
78479;SHT31;67769;51.972;5.668;2023-07-13T10:05:50;25.7;50.7
78479;SHT31;67769;51.972;5.668;2023-07-13T10:08:28;25.9;49.6
78479;SHT31;67769;51.972;5.668;2023-07-13T10:11:09;26.1;49.3
78479;SHT31;67769;51.972;5.668;2023-07-13T10:13:41;26.3;47.6
78479;SHT31;67769;51.972;5.668;2023-07-13T10:16:12;26.4;47.7
78479;SHT31;67769;51.972;5.668;2023-07-13T10:18:47;26.5;47.8
78479;SHT31;67769;51.972;5.668;2023-07-13T10:21:20;26.5;48.3
78479;SHT31;67769;51.972;5.668;2023-07-13T10:23:55;26.5;47.9
78479;SHT31;67769;51.972;5.668;2023-07-13T10:26:31;26.5;48.0
78479;SHT31;67769;51.972;5.668;2023-07-13T10:29:06;26.4;48.1
78479;SHT31;67769;51.972;5.668;2023-07-13T10:31:39;26.4;49.0
78479;SHT31;67769;51.972;5.668;2023-07-13T10:34:11;26.4;49.5
78479;SHT31;67769;51.972;5.668;2023-07-13T10:36:43;26.3;49.6
78479;SHT31;67769;51.972;5.668;2023-07-13T10:39:19;26.4;49.8
78479;SHT31;67769;51.972;5.668;2023-07-13T10:41:54;26.4;48.7
78479;SHT31;67769;51.972;5.668;2023-07-13T10:44:28;26.4;47.3
78479;SHT31;67769;51.972;5.668;2023-07-13T10:47:04;26.4;46.2
78479;SHT31;67769;51.972;5.668;2023-07-13T10:49:38;26.4;45.1
78479;SHT31;67769;51.972;5.668;2023-07-13T10:52:42;26.4;46.2
78479;SHT31;67769;51.972;5.668;2023-07-13T10:56:00;26.4;45.4
78479;SHT31;67769;51.972;5.668;2023-07-13T10:58:37;26.5;45.4
78479;SHT31;67769;51.972;5.668;2023-07-13T11:01:11;26.6;45.5
78479;SHT31;67769;51.972;5.668;2023-07-13T11:03:50;26.6;46.0
78479;SHT31;67769;51.972;5.668;2023-07-13T11:06:34;26.6;47.2
78479;SHT31;67769;51.972;5.668;2023-07-13T11:09:38;26.6;45.6
78479;SHT31;67769;51.972;5.668;2023-07-13T11:12:28;26.7;45.3
78479;SHT31;67769;51.972;5.668;2023-07-13T11:15:05;26.7;45.3
78479;SHT31;67769;51.972;5.668;2023-07-13T11:17:49;26.8;45.7
78479;SHT31;67769;51.972;5.668;2023-07-13T11:20:34;26.8;46.2
78479;SHT31;67769;51.972;5.668;2023-07-13T11:23:18;26.9;45.8
78479;SHT31;67769;51.972;5.668;2023-07-13T11:25:48;27.0;45.6
78479;SHT31;67769;51.972;5.668;2023-07-13T11:28:22;27.1;45.3
78479;SHT31;67769;51.972;5.668;2023-07-13T11:31:03;27.2;45.0
78479;SHT31;67769;51.972;5.668;2023-07-13T11:33:50;27.4;43.7
78479;SHT31;67769;51.972;5.668;2023-07-13T11:36:23;27.5;43.5
78479;SHT31;67769;51.972;5.668;2023-07-13T11:39:01;27.5;44.2
78479;SHT31;67769;51.972;5.668;2023-07-13T11:41:35;27.6;44.0
78479;SHT31;67769;51.972;5.668;2023-07-13T11:44:13;27.6;43.7
78479;SHT31;67769;51.972;5.668;2023-07-13T11:46:48;27.6;43.6
78479;SHT31;67769;51.972;5.668;2023-07-13T11:49:21;27.6;43.6
78479;SHT31;67769;51.972;5.668;2023-07-13T11:51:51;27.6;43.9
78479;SHT31;67769;51.972;5.668;2023-07-13T11:54:28;27.5;43.6
78479;SHT31;67769;51.972;5.668;2023-07-13T11:57:01;27.5;43.7
78479;SHT31;67769;51.972;5.668;2023-07-13T11:59:40;27.4;43.9
78479;SHT31;67769;51.972;5.668;2023-07-13T12:02:17;27.3;42.7
78479;SHT31;67769;51.972;5.668;2023-07-13T12:04:51;27.3;43.7
78479;SHT31;67769;51.972;5.668;2023-07-13T12:07:22;27.3;43.0
78479;SHT31;67769;51.972;5.668;2023-07-13T12:09:51;27.3;42.0
78479;SHT31;67769;51.972;5.668;2023-07-13T12:12:22;27.3;42.4
78479;SHT31;67769;51.972;5.668;2023-07-13T12:14:52;27.3;42.2
78479;SHT31;67769;51.972;5.668;2023-07-13T12:17:24;27.3;44.2
78479;SHT31;67769;51.972;5.668;2023-07-13T12:19:55;27.3;44.0
78479;SHT31;67769;51.972;5.668;2023-07-13T12:22:25;27.3;44.0
78479;SHT31;67769;51.972;5.668;2023-07-13T12:24:56;27.4;43.6
78479;SHT31;67769;51.972;5.668;2023-07-13T12:27:27;27.4;43.3
78479;SHT31;67769;51.972;5.668;2023-07-13T12:30:01;27.4;42.2
78479;SHT31;67769;51.972;5.668;2023-07-13T12:32:32;27.4;41.7
78479;SHT31;67769;51.972;5.668;2023-07-13T12:35:15;27.4;42.6
78479;SHT31;67769;51.972;5.668;2023-07-13T12:37:48;27.5;42.5
78479;SHT31;67769;51.972;5.668;2023-07-13T12:40:20;27.5;41.2
78479;SHT31;67769;51.972;5.668;2023-07-13T12:42:52;27.5;41.4
78479;SHT31;67769;51.972;5.668;2023-07-13T12:45:24;27.6;40.7
78479;SHT31;67769;51.972;5.668;2023-07-13T12:47:57;27.6;40.0
78479;SHT31;67769;51.972;5.668;2023-07-13T12:50:36;27.6;40.8
78479;SHT31;67769;51.972;5.668;2023-07-13T12:53:17;27.7;40.2
78479;SHT31;67769;51.972;5.668;2023-07-13T12:55:52;27.7;40.0
78479;SHT31;67769;51.972;5.668;2023-07-13T12:58:27;27.7;39.7
78479;SHT31;67769;51.972;5.668;2023-07-13T13:01:01;27.7;39.8
78479;SHT31;67769;51.972;5.668;2023-07-13T13:03:33;27.7;40.7
78479;SHT31;67769;51.972;5.668;2023-07-13T13:06:06;27.7;40.9
78479;SHT31;67769;51.972;5.668;2023-07-13T13:08:36;27.7;40.1
78479;SHT31;67769;51.972;5.668;2023-07-13T13:11:08;27.8;40.6
78479;SHT31;67769;51.972;5.668;2023-07-13T13:13:38;27.8;40.8
78479;SHT31;67769;51.972;5.668;2023-07-13T13:16:14;27.9;40.7
78479;SHT31;67769;51.972;5.668;2023-07-13T13:18:46;28.0;39.9
78479;SHT31;67769;51.972;5.668;2023-07-13T13:21:18;28.1;39.1
78479;SHT31;67769;51.972;5.668;2023-07-13T13:23:48;28.1;39.6
78479;SHT31;67769;51.972;5.668;2023-07-13T13:26:21;28.2;38.6
78479;SHT31;67769;51.972;5.668;2023-07-13T13:28:50;28.3;39.8
78479;SHT31;67769;51.972;5.668;2023-07-13T13:31:23;28.3;38.8
78479;SHT31;67769;51.972;5.668;2023-07-13T13:33:52;28.4;39.5
78479;SHT31;67769;51.972;5.668;2023-07-13T13:36:23;28.4;38.5
78479;SHT31;67769;51.972;5.668;2023-07-13T13:38:52;28.4;37.9
78479;SHT31;67769;51.972;5.668;2023-07-13T13:41:22;28.5;39.0
78479;SHT31;67769;51.972;5.668;2023-07-13T13:43:51;28.5;39.1
78479;SHT31;67769;51.972;5.668;2023-07-13T13:46:24;28.5;38.7
78479;SHT31;67769;51.972;5.668;2023-07-13T13:48:56;28.6;38.6
78479;SHT31;67769;51.972;5.668;2023-07-13T13:51:26;28.6;38.9
78479;SHT31;67769;51.972;5.668;2023-07-13T13:53:56;28.6;39.6
78479;SHT31;67769;51.972;5.668;2023-07-13T13:56:27;28.7;40.5
78479;SHT31;67769;51.972;5.668;2023-07-13T13:58:56;28.7;39.6
78479;SHT31;67769;51.972;5.668;2023-07-13T14:01:26;28.8;38.6
78479;SHT31;67769;51.972;5.668;2023-07-13T14:03:56;28.8;38.4
78479;SHT31;67769;51.972;5.668;2023-07-13T14:06:26;28.8;38.2
78479;SHT31;67769;51.972;5.668;2023-07-13T14:08:56;28.8;38.5
78479;SHT31;67769;51.972;5.668;2023-07-13T14:11:26;28.8;38.0
78479;SHT31;67769;51.972;5.668;2023-07-13T14:13:58;28.7;38.4
78479;SHT31;67769;51.972;5.668;2023-07-13T14:16:31;28.7;37.8
78479;SHT31;67769;51.972;5.668;2023-07-13T14:19:02;28.7;36.5
78479;SHT31;67769;51.972;5.668;2023-07-13T14:21:32;28.7;36.5
78479;SHT31;67769;51.972;5.668;2023-07-13T14:24:02;28.7;37.1
78479;SHT31;67769;51.972;5.668;2023-07-13T14:26:36;28.7;37.2
78479;SHT31;67769;51.972;5.668;2023-07-13T14:29:12;28.7;37.8
78479;SHT31;67769;51.972;5.668;2023-07-13T14:31:44;28.7;37.8
78479;SHT31;67769;51.972;5.668;2023-07-13T14:34:14;28.7;37.2
78479;SHT31;67769;51.972;5.668;2023-07-13T14:36:46;28.7;38.0
78479;SHT31;67769;51.972;5.668;2023-07-13T14:39:19;28.6;38.1
78479;SHT31;67769;51.972;5.668;2023-07-13T14:41:51;28.5;37.4
78479;SHT31;67769;51.972;5.668;2023-07-13T14:44:25;28.5;38.3
78479;SHT31;67769;51.972;5.668;2023-07-13T14:46:57;28.4;38.4
78479;SHT31;67769;51.972;5.668;2023-07-13T14:49:30;28.3;38.3
78479;SHT31;67769;51.972;5.668;2023-07-13T14:52:12;28.3;38.5
78479;SHT31;67769;51.972;5.668;2023-07-13T14:54:38;28.2;38.4
78479;SHT31;67769;51.972;5.668;2023-07-13T14:57:12;28.2;38.4
78479;SHT31;67769;51.972;5.668;2023-07-13T14:59:42;28.1;38.7
78479;SHT31;67769;51.972;5.668;2023-07-13T15:02:21;28.1;38.5
78479;SHT31;67769;51.972;5.668;2023-07-13T15:04:52;28.0;38.3
78479;SHT31;67769;51.972;5.668;2023-07-13T15:07:23;28.0;37.8
78479;SHT31;67769;51.972;5.668;2023-07-13T15:09:53;27.9;38.7
78479;SHT31;67769;51.972;5.668;2023-07-13T15:12:22;27.9;38.2
78479;SHT31;67769;51.972;5.668;2023-07-13T15:14:52;27.8;39.1
78479;SHT31;67769;51.972;5.668;2023-07-13T15:17:31;27.7;38.9
78479;SHT31;67769;51.972;5.668;2023-07-13T15:20:04;27.6;39.1
78479;SHT31;67769;51.972;5.668;2023-07-13T15:22:37;27.6;38.5
78479;SHT31;67769;51.972;5.668;2023-07-13T15:25:12;27.5;39.0
78479;SHT31;67769;51.972;5.668;2023-07-13T15:27:43;27.4;39.3
78479;SHT31;67769;51.972;5.668;2023-07-13T15:30:14;27.3;38.7
78479;SHT31;67769;51.972;5.668;2023-07-13T15:32:45;27.2;39.1
78479;SHT31;67769;51.972;5.668;2023-07-13T15:35:17;27.2;39.5
78479;SHT31;67769;51.972;5.668;2023-07-13T15:37:49;27.1;39.7
78479;SHT31;67769;51.972;5.668;2023-07-13T15:40:22;27.0;39.8
78479;SHT31;67769;51.972;5.668;2023-07-13T15:42:52;26.9;39.8
78479;SHT31;67769;51.972;5.668;2023-07-13T15:45:23;26.9;39.7
78479;SHT31;67769;51.972;5.668;2023-07-13T15:47:54;26.8;40.4
78479;SHT31;67769;51.972;5.668;2023-07-13T15:50:29;26.8;40.8
78479;SHT31;67769;51.972;5.668;2023-07-13T15:53:00;26.7;41.4
78479;SHT31;67769;51.972;5.668;2023-07-13T15:55:37;26.7;42.2
78479;SHT31;67769;51.972;5.668;2023-07-13T15:58:08;26.7;42.9
78479;SHT31;67769;51.972;5.668;2023-07-13T16:00:39;26.7;42.9
78479;SHT31;67769;51.972;5.668;2023-07-13T16:03:09;26.6;43.0
78479;SHT31;67769;51.972;5.668;2023-07-13T16:05:38;26.6;43.2
78479;SHT31;67769;51.972;5.668;2023-07-13T16:08:18;26.7;43.0
78479;SHT31;67769;51.972;5.668;2023-07-13T16:10:51;26.7;42.3
78479;SHT31;67769;51.972;5.668;2023-07-13T16:13:21;26.7;42.5
78479;SHT31;67769;51.972;5.668;2023-07-13T16:15:52;26.7;42.6
78479;SHT31;67769;51.972;5.668;2023-07-13T16:18:23;26.7;41.9
78479;SHT31;67769;51.972;5.668;2023-07-13T16:20:56;26.8;40.4
78479;SHT31;67769;51.972;5.668;2023-07-13T16:23:28;26.8;40.0
78479;SHT31;67769;51.972;5.668;2023-07-13T16:26:00;26.8;40.6
78479;SHT31;67769;51.972;5.668;2023-07-13T16:28:31;26.8;41.1
78479;SHT31;67769;51.972;5.668;2023-07-13T16:31:01;26.9;40.8
78479;SHT31;67769;51.972;5.668;2023-07-13T16:33:32;26.9;39.6
78479;SHT31;67769;51.972;5.668;2023-07-13T16:36:02;26.9;39.5
78479;SHT31;67769;51.972;5.668;2023-07-13T16:38:33;26.9;39.7
78479;SHT31;67769;51.972;5.668;2023-07-13T16:41:03;26.9;39.7
78479;SHT31;67769;51.972;5.668;2023-07-13T16:43:32;26.9;40.3